sensor_id;sensor_type;location;lat;lon;timestamp;pressure;altitude;pressure_sealevel;temperature;humidity
10392;BME280;5242;49.244;6.774;2023-05-14T00:06:07;99661.84;;;8.84;nan
10392;BME280;5242;49.244;6.774;2023-05-14T00:14:00;99662.41;;;8.78;nan
10392;BME280;5242;49.244;6.774;2023-05-14T00:21:51;99663.41;;;8.61;nan
10392;BME280;5242;49.244;6.774;2023-05-14T00:29:43;99667.69;;;8.49;nan
10392;BME280;5242;49.244;6.774;2023-05-14T00:37:36;99655.56;;;8.47;nan
10392;BME280;5242;49.244;6.774;2023-05-14T00:45:28;99655.22;;;8.48;nan
10392;BME280;5242;49.244;6.774;2023-05-14T00:53:20;99653.72;;;8.39;nan
10392;BME280;5242;49.244;6.774;2023-05-14T01:01:11;99650.41;;;8.21;nan
10392;BME280;5242;49.244;6.774;2023-05-14T01:17:15;99634.53;;;8.11;nan
10392;BME280;5242;49.244;6.774;2023-05-14T01:25:10;99630.44;;;8.04;nan
10392;BME280;5242;49.244;6.774;2023-05-14T01:33:05;99635.00;;;7.92;nan
10392;BME280;5242;49.244;6.774;2023-05-14T01:41:01;99631.50;;;7.91;nan
10392;BME280;5242;49.244;6.774;2023-05-14T01:48:53;99632.19;;;7.88;nan
10392;BME280;5242;49.244;6.774;2023-05-14T01:56:45;99631.66;;;7.74;nan
10392;BME280;5242;49.244;6.774;2023-05-14T02:04:37;99626.31;;;7.65;nan
10392;BME280;5242;49.244;6.774;2023-05-14T02:12:29;99626.63;;;7.63;nan
10392;BME280;5242;49.244;6.774;2023-05-14T02:20:21;99617.41;;;7.65;nan
10392;BME280;5242;49.244;6.774;2023-05-14T02:28:13;99617.91;;;7.58;nan
10392;BME280;5242;49.244;6.774;2023-05-14T02:36:05;99618.31;;;7.48;nan
10392;BME280;5242;49.244;6.774;2023-05-14T02:43:57;99604.31;;;7.46;nan
10392;BME280;5242;49.244;6.774;2023-05-14T02:51:48;99618.63;;;7.46;nan
10392;BME280;5242;49.244;6.774;2023-05-14T02:59:40;99617.66;;;7.30;nan
10392;BME280;5242;49.244;6.774;2023-05-14T03:07:32;99618.69;;;7.16;nan
10392;BME280;5242;49.244;6.774;2023-05-14T03:15:24;99617.66;;;7.00;nan
10392;BME280;5242;49.244;6.774;2023-05-14T03:23:16;99612.16;;;6.88;nan
10392;BME280;5242;49.244;6.774;2023-05-14T03:31:08;99613.31;;;6.78;nan
10392;BME280;5242;49.244;6.774;2023-05-14T03:39:01;99617.13;;;6.77;nan
10392;BME280;5242;49.244;6.774;2023-05-14T03:46:53;99608.41;;;6.71;nan
10392;BME280;5242;49.244;6.774;2023-05-14T03:54:45;99611.13;;;6.71;nan
10392;BME280;5242;49.244;6.774;2023-05-14T04:02:37;99608.09;;;6.73;nan
10392;BME280;5242;49.244;6.774;2023-05-14T04:10:30;99612.25;;;6.70;nan
10392;BME280;5242;49.244;6.774;2023-05-14T04:18:22;99615.63;;;6.67;nan
10392;BME280;5242;49.244;6.774;2023-05-14T04:26:14;99612.25;;;6.70;nan
10392;BME280;5242;49.244;6.774;2023-05-14T04:34:06;99613.66;;;6.77;nan
10392;BME280;5242;49.244;6.774;2023-05-14T04:41:58;99616.94;;;6.91;nan
10392;BME280;5242;49.244;6.774;2023-05-14T04:49:50;99618.53;;;7.13;nan
10392;BME280;5242;49.244;6.774;2023-05-14T04:57:41;99613.41;;;7.41;nan
10392;BME280;5242;49.244;6.774;2023-05-14T05:05:33;99609.91;;;7.61;nan
10392;BME280;5242;49.244;6.774;2023-05-14T05:13:26;99610.22;;;7.81;nan
10392;BME280;5242;49.244;6.774;2023-05-14T05:21:17;99605.13;;;8.00;nan
10392;BME280;5242;49.244;6.774;2023-05-14T05:29:09;99613.56;;;8.32;nan
10392;BME280;5242;49.244;6.774;2023-05-14T05:37:01;99617.03;;;8.66;nan
10392;BME280;5242;49.244;6.774;2023-05-14T05:44:53;99610.25;;;8.97;nan
10392;BME280;5242;49.244;6.774;2023-05-14T05:52:45;99610.22;;;9.33;nan
10392;BME280;5242;49.244;6.774;2023-05-14T06:00:37;99618.00;;;9.75;nan
10392;BME280;5242;49.244;6.774;2023-05-14T06:08:29;99617.16;;;10.15;nan
10392;BME280;5242;49.244;6.774;2023-05-14T06:16:22;99622.97;;;10.74;nan
10392;BME280;5242;49.244;6.774;2023-05-14T06:24:14;99616.41;;;11.45;nan
10392;BME280;5242;49.244;6.774;2023-05-14T06:32:07;99605.50;;;12.04;nan
10392;BME280;5242;49.244;6.774;2023-05-14T06:40:00;99603.38;;;12.59;nan
10392;BME280;5242;49.244;6.774;2023-05-14T06:47:52;99598.72;;;13.13;nan
10392;BME280;5242;49.244;6.774;2023-05-14T06:55:46;99603.00;;;13.67;nan
10392;BME280;5242;49.244;6.774;2023-05-14T07:03:38;99607.34;;;14.46;nan
10392;BME280;5242;49.244;6.774;2023-05-14T07:11:30;99607.91;;;15.18;nan
10392;BME280;5242;49.244;6.774;2023-05-14T07:19:22;99594.16;;;15.80;nan
10392;BME280;5242;49.244;6.774;2023-05-14T07:27:13;99586.44;;;16.65;nan
10392;BME280;5242;49.244;6.774;2023-05-14T07:35:07;99578.09;;;17.36;nan
10392;BME280;5242;49.244;6.774;2023-05-14T07:42:59;99564.09;;;17.97;nan
10392;BME280;5242;49.244;6.774;2023-05-14T07:50:51;99568.94;;;18.87;nan
10392;BME280;5242;49.244;6.774;2023-05-14T07:58:43;99558.06;;;19.45;nan
10392;BME280;5242;49.244;6.774;2023-05-14T08:06:35;99553.47;;;19.96;nan
10392;BME280;5242;49.244;6.774;2023-05-14T08:14:27;99554.78;;;20.66;nan
10392;BME280;5242;49.244;6.774;2023-05-14T08:22:19;99550.75;;;21.34;nan
10392;BME280;5242;49.244;6.774;2023-05-14T08:30:12;99547.16;;;21.57;nan
10392;BME280;5242;49.244;6.774;2023-05-14T08:38:04;99540.53;;;23.47;nan
10392;BME280;5242;49.244;6.774;2023-05-14T08:45:57;99527.41;;;25.95;nan
10392;BME280;5242;49.244;6.774;2023-05-14T08:53:51;99526.06;;;27.04;nan
10392;BME280;5242;49.244;6.774;2023-05-14T09:01:45;99518.75;;;27.95;nan
10392;BME280;5242;49.244;6.774;2023-05-14T09:09:41;99516.38;;;28.03;nan
10392;BME280;5242;49.244;6.774;2023-05-14T09:17:35;99512.09;;;26.86;nan
10392;BME280;5242;49.244;6.774;2023-05-14T09:25:31;99511.00;;;24.17;nan
10392;BME280;5242;49.244;6.774;2023-05-14T09:33:27;99499.19;;;24.00;nan
10392;BME280;5242;49.244;6.774;2023-05-14T09:41:19;99487.38;;;26.48;nan
10392;BME280;5242;49.244;6.774;2023-05-14T09:49:13;99477.28;;;27.85;nan
10392;BME280;5242;49.244;6.774;2023-05-14T09:57:05;99477.59;;;29.87;nan
10392;BME280;5242;49.244;6.774;2023-05-14T10:04:59;99467.75;;;29.77;nan
10392;BME280;5242;49.244;6.774;2023-05-14T10:12:57;99442.13;;;29.54;nan
10392;BME280;5242;49.244;6.774;2023-05-14T10:21:00;99455.13;;;28.68;nan
10392;BME280;5242;49.244;6.774;2023-05-14T10:28:55;99451.81;;;29.38;nan
10392;BME280;5242;49.244;6.774;2023-05-14T10:36:47;99455.84;;;28.15;nan
10392;BME280;5242;49.244;6.774;2023-05-14T10:44:59;99451.28;;;28.80;nan
10392;BME280;5242;49.244;6.774;2023-05-14T10:52:53;99431.22;;;28.19;nan
10392;BME280;5242;49.244;6.774;2023-05-14T11:00:46;99434.97;;;27.92;nan
10392;BME280;5242;49.244;6.774;2023-05-14T11:08:39;99413.59;;;28.04;nan
10392;BME280;5242;49.244;6.774;2023-05-14T11:16:31;99403.72;;;28.32;nan
10392;BME280;5242;49.244;6.774;2023-05-14T11:24:24;99397.78;;;29.23;nan
10392;BME280;5242;49.244;6.774;2023-05-14T11:32:16;99381.41;;;28.23;nan
10392;BME280;5242;49.244;6.774;2023-05-14T11:40:14;99384.97;;;28.48;nan
10392;BME280;5242;49.244;6.774;2023-05-14T11:48:11;99391.97;;;27.71;nan
10392;BME280;5242;49.244;6.774;2023-05-14T11:56:04;99369.53;;;25.66;nan
10392;BME280;5242;49.244;6.774;2023-05-14T12:03:59;99361.59;;;29.75;nan
10392;BME280;5242;49.244;6.774;2023-05-14T12:11:51;99335.44;;;32.88;nan
10392;BME280;5242;49.244;6.774;2023-05-14T12:19:45;99340.59;;;30.11;nan
10392;BME280;5242;49.244;6.774;2023-05-14T12:27:38;99340.19;;;26.66;nan
10392;BME280;5242;49.244;6.774;2023-05-14T12:35:30;99335.13;;;24.57;nan
10392;BME280;5242;49.244;6.774;2023-05-14T12:43:21;99335.75;;;23.18;nan
10392;BME280;5242;49.244;6.774;2023-05-14T12:51:14;99329.91;;;21.87;nan
10392;BME280;5242;49.244;6.774;2023-05-14T12:59:06;99314.94;;;21.52;nan
10392;BME280;5242;49.244;6.774;2023-05-14T13:06:58;99298.25;;;24.31;nan
10392;BME280;5242;49.244;6.774;2023-05-14T13:14:50;99291.25;;;26.80;nan
10392;BME280;5242;49.244;6.774;2023-05-14T13:22:43;99302.75;;;25.13;nan
10392;BME280;5242;49.244;6.774;2023-05-14T13:30:35;99346.06;;;22.05;nan
10392;BME280;5242;49.244;6.774;2023-05-14T13:38:26;99339.13;;;19.71;nan
10392;BME280;5242;49.244;6.774;2023-05-14T13:46:18;99332.97;;;19.06;nan
10392;BME280;5242;49.244;6.774;2023-05-14T13:54:10;99322.44;;;19.24;nan
10392;BME280;5242;49.244;6.774;2023-05-14T14:02:03;99290.50;;;19.97;nan
10392;BME280;5242;49.244;6.774;2023-05-14T14:09:55;99267.97;;;21.93;nan
10392;BME280;5242;49.244;6.774;2023-05-14T14:17:47;99259.19;;;22.79;nan
10392;BME280;5242;49.244;6.774;2023-05-14T14:25:39;99253.03;;;22.46;nan
10392;BME280;5242;49.244;6.774;2023-05-14T14:33:31;99243.66;;;21.98;nan
10392;BME280;5242;49.244;6.774;2023-05-14T14:41:23;99246.88;;;21.34;nan
10392;BME280;5242;49.244;6.774;2023-05-14T14:49:15;99235.91;;;21.14;nan
10392;BME280;5242;49.244;6.774;2023-05-14T14:57:07;99233.03;;;21.34;nan
10392;BME280;5242;49.244;6.774;2023-05-14T15:04:59;99214.31;;;21.55;nan
10392;BME280;5242;49.244;6.774;2023-05-14T15:12:51;99209.78;;;21.77;nan
10392;BME280;5242;49.244;6.774;2023-05-14T15:20:43;99210.97;;;21.31;nan
10392;BME280;5242;49.244;6.774;2023-05-14T15:28:35;99217.38;;;20.95;nan
10392;BME280;5242;49.244;6.774;2023-05-14T15:36:27;99213.94;;;20.34;nan
10392;BME280;5242;49.244;6.774;2023-05-14T15:44:19;99209.34;;;19.88;nan
10392;BME280;5242;49.244;6.774;2023-05-14T15:52:12;99210.13;;;19.88;nan
10392;BME280;5242;49.244;6.774;2023-05-14T16:00:04;99220.63;;;19.97;nan
10392;BME280;5242;49.244;6.774;2023-05-14T16:08:01;99217.69;;;20.04;nan
10392;BME280;5242;49.244;6.774;2023-05-14T16:15:54;99217.88;;;19.97;nan
10392;BME280;5242;49.244;6.774;2023-05-14T16:23:46;99213.25;;;20.10;nan
10392;BME280;5242;49.244;6.774;2023-05-14T16:31:37;99210.75;;;20.16;nan
10392;BME280;5242;49.244;6.774;2023-05-14T16:39:29;99204.16;;;20.30;nan
10392;BME280;5242;49.244;6.774;2023-05-14T16:47:21;99243.00;;;20.42;nan
10392;BME280;5242;49.244;6.774;2023-05-14T16:55:13;99276.91;;;19.13;nan
10392;BME280;5242;49.244;6.774;2023-05-14T17:03:05;99312.88;;;18.06;nan
10392;BME280;5242;49.244;6.774;2023-05-14T17:10:58;99317.81;;;16.51;nan
10392;BME280;5242;49.244;6.774;2023-05-14T17:18:50;99313.28;;;15.69;nan
10392;BME280;5242;49.244;6.774;2023-05-14T17:26:41;99268.56;;;15.11;nan
10392;BME280;5242;49.244;6.774;2023-05-14T17:34:33;99283.44;;;14.96;nan
10392;BME280;5242;49.244;6.774;2023-05-14T17:42:25;99274.41;;;15.03;nan
10392;BME280;5242;49.244;6.774;2023-05-14T17:50:17;99280.31;;;15.22;nan
10392;BME280;5242;49.244;6.774;2023-05-14T17:58:13;99288.16;;;15.56;nan
10392;BME280;5242;49.244;6.774;2023-05-14T18:06:06;99297.63;;;15.73;nan
10392;BME280;5242;49.244;6.774;2023-05-14T18:13:59;99312.09;;;15.52;nan
10392;BME280;5242;49.244;6.774;2023-05-14T18:21:51;99308.56;;;15.44;nan
10392;BME280;5242;49.244;6.774;2023-05-14T18:29:46;99314.03;;;15.30;nan
10392;BME280;5242;49.244;6.774;2023-05-14T18:37:37;99308.13;;;15.21;nan
10392;BME280;5242;49.244;6.774;2023-05-14T18:45:29;99306.97;;;15.15;nan
10392;BME280;5242;49.244;6.774;2023-05-14T18:53:21;99320.63;;;15.00;nan
10392;BME280;5242;49.244;6.774;2023-05-14T19:01:13;99325.69;;;14.81;nan
10392;BME280;5242;49.244;6.774;2023-05-14T19:09:05;99333.53;;;14.78;nan
10392;BME280;5242;49.244;6.774;2023-05-14T19:16:57;99334.66;;;14.77;nan
10392;BME280;5242;49.244;6.774;2023-05-14T19:24:49;99345.97;;;14.62;nan
10392;BME280;5242;49.244;6.774;2023-05-14T19:32:41;99347.00;;;14.39;nan
10392;BME280;5242;49.244;6.774;2023-05-14T19:40:33;99355.13;;;14.18;nan
10392;BME280;5242;49.244;6.774;2023-05-14T19:48:25;99359.63;;;13.88;nan
10392;BME280;5242;49.244;6.774;2023-05-14T19:56:16;99369.72;;;13.81;nan
10392;BME280;5242;49.244;6.774;2023-05-14T20:04:08;99369.66;;;13.74;nan
10392;BME280;5242;49.244;6.774;2023-05-14T20:12:01;99371.13;;;13.60;nan
10392;BME280;5242;49.244;6.774;2023-05-14T20:19:53;99377.06;;;13.29;nan
10392;BME280;5242;49.244;6.774;2023-05-14T20:27:44;99374.22;;;13.21;nan
10392;BME280;5242;49.244;6.774;2023-05-14T20:35:36;99368.69;;;13.14;nan
10392;BME280;5242;49.244;6.774;2023-05-14T20:43:28;99360.41;;;13.07;nan
10392;BME280;5242;49.244;6.774;2023-05-14T20:51:20;99346.16;;;12.91;nan
10392;BME280;5242;49.244;6.774;2023-05-14T20:59:12;99336.81;;;12.92;nan
10392;BME280;5242;49.244;6.774;2023-05-14T21:07:04;99334.03;;;12.88;nan
10392;BME280;5242;49.244;6.774;2023-05-14T21:14:56;99339.38;;;12.77;nan
10392;BME280;5242;49.244;6.774;2023-05-14T21:22:48;99332.66;;;12.71;nan
10392;BME280;5242;49.244;6.774;2023-05-14T21:30:39;99323.03;;;12.81;nan
10392;BME280;5242;49.244;6.774;2023-05-14T21:38:31;99326.63;;;12.89;nan
10392;BME280;5242;49.244;6.774;2023-05-14T21:46:23;99330.91;;;12.90;nan
10392;BME280;5242;49.244;6.774;2023-05-14T21:54:16;99334.31;;;12.79;nan
10392;BME280;5242;49.244;6.774;2023-05-14T22:02:08;99327.56;;;12.70;nan
10392;BME280;5242;49.244;6.774;2023-05-14T22:10:00;99315.34;;;12.60;nan
10392;BME280;5242;49.244;6.774;2023-05-14T22:17:52;99319.66;;;12.61;nan
10392;BME280;5242;49.244;6.774;2023-05-14T22:25:44;99314.53;;;12.56;nan
10392;BME280;5242;49.244;6.774;2023-05-14T22:33:35;99313.47;;;12.34;nan
10392;BME280;5242;49.244;6.774;2023-05-14T22:41:27;99313.34;;;12.23;nan
10392;BME280;5242;49.244;6.774;2023-05-14T22:49:19;99311.91;;;12.33;nan
10392;BME280;5242;49.244;6.774;2023-05-14T22:57:11;99310.19;;;12.21;nan
10392;BME280;5242;49.244;6.774;2023-05-14T23:05:04;99310.72;;;12.04;nan
10392;BME280;5242;49.244;6.774;2023-05-14T23:12:56;99302.78;;;11.91;nan
10392;BME280;5242;49.244;6.774;2023-05-14T23:20:48;99304.19;;;11.85;nan
10392;BME280;5242;49.244;6.774;2023-05-14T23:28:40;99298.31;;;11.83;nan
10392;BME280;5242;49.244;6.774;2023-05-14T23:36:32;99291.56;;;11.73;nan
10392;BME280;5242;49.244;6.774;2023-05-14T23:44:24;99285.13;;;11.62;nan
10392;BME280;5242;49.244;6.774;2023-05-14T23:52:15;99278.03;;;11.58;nan
